Time Latitude Longitude Accuracy (66% radius in meters) Altitude (meters) Speed (km/hour) Bearing (degrees) Battery (%) GPS flag
09:54:29 56.287793 44.026872 9.8999996185303 152.3 0 350.80999755859 85 1 delete
09:54:19 56.287793 44.026872 10.699999809265 152.3 0 350.80999755859 85 1 delete
09:54:09 56.287742 44.026890 12.800000190735 153.2 0 289.16000366211 85 1 delete
09:53:57 56.287742 44.026890 13.10000038147 153.2 0 289.16000366211 85 1 delete
09:53:53 56.287763 44.026777 18.299999237061 153.7 0 289.16000366211 85 1 delete
09:53:47 56.287713 44.026882 25.200000762939 153.6 0 290.48999023438 85 1 delete
09:53:37 56.287717 44.026900 26.89999961853 153.6 0 306.29000854492 85 1 delete
09:53:33 56.287697 44.026940 26.10000038147 153.6 0 331.07998657227 85 1 delete
09:53:25 56.287623 44.026995 24.700000762939 153.4 0 150.60000610352 85 1 delete
09:53:15 56.287623 44.026995 21.299999237061 153.4 0 150.60000610352 85 1 delete
09:53:03 56.287623 44.026995 16.10000038147 153.4 0 150.60000610352 85 1 delete
09:52:53 56.287623 44.026995 15.199999809265 153.4 0 150.60000610352 85 1 delete
09:52:41 56.287602 44.027025 23.89999961853 153.5 0 127.09999847412 85 1 delete
09:52:31 56.287620 44.026950 24.39999961853 153.6 0 129.94999694824 85 1 delete
09:52:21 56.287620 44.026950 23.299999237061 153.6 0 129.94999694824 85 1 delete
09:52:09 56.287620 44.026950 17.799999237061 153.6 0 129.94999694824 85 1 delete
09:51:59 56.287620 44.026950 13.5 153.6 0 129.94999694824 85 1 delete
09:51:47 56.287620 44.026950 13.39999961853 153.6 0 129.94999694824 85 1 delete
09:51:37 56.287613 44.026950 16.299999237061 153.6 0 129.94000244141 85 1 delete
09:51:29 56.287572 44.026892 25.39999961853 153.9 0 149.08999633789 85 1 delete
09:51:25 56.287633 44.026898 31.200000762939 154.5 0 134.28999328613 85 1 delete
09:51:13 56.287675 44.026973 19.799999237061 155.8 0 146.74000549316 85 1 delete
09:51:05 56.287675 44.026980 22.89999961853 155.9 0 152.7799987793 85 1 delete
09:51:03 56.287698 44.026980 25.299999237061 156.3 0 151.66000366211 85 1 delete
09:50:51 56.287777 44.026993 24.89999961853 157.3 0 115.58999633789 85 1 delete
09:50:49 56.287770 44.026970 24.700000762939 157.4 0 68.080001831055 85 1 delete
09:50:41 56.287782 44.026898 27.200000762939 157.9 0 21.829999923706 85 1 delete
09:50:31 56.287800 44.026863 28.60000038147 158.6 0 354.91000366211 85 1 delete
09:50:21 56.287837 44.026885 33.5 160.9 0 228.91000366211 85 1 delete
09:50:09 56.287837 44.026927 28.299999237061 161 0 82.029998779297 85 1 delete
09:49:59 56.287807 44.026898 28.10000038147 161.1 0 279.55999755859 85 1 delete
09:49:48 56.287822 44.026878 31.89999961853 161.4 0 30.270000457764 85 1 delete
09:49:37 56.287790 44.026792 31.299999237061 162 0 235.83999633789 85 1 delete
09:49:28 56.287798 44.026793 35.5 163.8 0 304.5299987793 85 1 delete
09:49:15 56.287792 44.026873 31 163.9 0 231.86000061035 85 1 delete
09:49:05 56.287783 44.026977 23.700000762939 164.6 0 246.25 85 1 delete
09:48:57 56.287797 44.027012 22.89999961853 166.1 0 289.7799987793 85 1 delete
09:48:54 56.287782 44.027088 22.700000762939 166.3 0 301.30999755859 85 1 delete
09:48:43 56.287783 44.027115 22.10000038147 166.5 0 301.30999755859 85 1 delete
09:48:25 56.287657 44.027323 25.700000762939 165.1 0 161.33999633789 85 1 delete
09:48:21 56.287740 44.027313 25.89999961853 164.4 0 207.05000305176 85 1 delete
09:48:19 56.287760 44.027352 26.39999961853 164.2 0 235.5 85 1 delete
09:48:11 56.287757 44.027523 30.10000038147 164.1 0 281 85 1 delete
09:47:59 56.287783 44.027542 31.60000038147 164.1 0 281 85 1 delete
09:47:49 56.287775 44.027565 32.900001525879 164.2 0 281 85 1 delete
09:47:45 56.287773 44.027545 33.900001525879 164.1 0 281 85 1 delete
09:47:24 56.287715 44.027682 35.299999237061 164.1 0 283.54998779297 85 1 delete
09:47:19 56.287728 44.027903 34.700000762939 163.7 0 295.07000732422 87 1 delete
09:47:11 56.287685 44.028100 32.900001525879 163 4.3679327964783 295.98999023438 87 1 delete
09:47:09 56.287663 44.028260 33.099998474121 162.8 4.7313265800476 298.45001220703 87 1 delete